Alma, Kansas
Current Conditions -  °F | °C
As of 3:52 AM on Wednesday 26 Nov 2014 (Local Time) from KMHK Reporting Station
Overcast Overcast  
Wind Chill: 39°   Ceiling: 8000
Heat Index: 43°   Visibility: 10mi
Dew Point: 31°   Wind: 7mph
Humidity: 62%   Direction: 270°W
Pressure: 29.95"   Gusts: NA
Location:  39.02°N, 96.29°W
Report Text: KMHK 260952Z AUTO 27006KT 10SM OVC080 06/M01 A2995 RMK AO2 SLP147 T00611006 TSNO
Loading
Personal Weather Stations






























Interactive Weather Map New forecast layout! Learn more

10-Day Weather Forecast

Advertisements
Track Severe Weather on mobile